createdAt,value
2019-04-05T00:01:04.977Z,98262.22
2019-04-05T00:03:33.202Z,98262.63
2019-04-05T00:06:01.656Z,98257.58
2019-04-05T00:08:29.888Z,98258.45
2019-04-05T00:10:58.116Z,98249.80
2019-04-05T00:13:26.564Z,98240.17
2019-04-05T00:15:54.790Z,98242.51
2019-04-05T00:18:23.015Z,98233.57
2019-04-05T00:20:51.252Z,98240.70
2019-04-05T00:23:19.479Z,98233.91
2019-04-05T00:25:47.720Z,98233.45
2019-04-05T00:28:16.118Z,98238.55
2019-04-05T00:30:44.840Z,98239.02
2019-04-05T00:33:13.291Z,98231.11
2019-04-05T00:35:41.527Z,98236.22
2019-04-05T00:38:09.985Z,98231.64
2019-04-05T00:40:38.215Z,98227.93
2019-04-05T00:43:06.438Z,98232.25
2019-04-05T00:45:34.674Z,98228.89
2019-04-05T00:48:02.891Z,98231.91
2019-04-05T00:50:31.127Z,98228.95
2019-04-05T00:52:59.579Z,98228.08
2019-04-05T00:55:28.041Z,98228.89
2019-04-05T00:57:56.488Z,98226.68
2019-04-05T01:00:25.717Z,98225.78
2019-04-05T01:02:53.944Z,98229.61
2019-04-05T01:05:22.397Z,98227.41
2019-04-05T01:07:50.914Z,98236.75
2019-04-05T01:10:19.585Z,98241.80
2019-04-05T01:12:47.816Z,98249.86
2019-04-05T01:15:16.187Z,98246.50
2019-04-05T01:17:44.415Z,98260.08
2019-04-05T01:20:13.086Z,98264.44
2019-04-05T01:22:41.877Z,98267.86
2019-04-05T01:25:10.461Z,98264.91
2019-04-05T01:27:40.165Z,98259.86
2019-04-05T01:30:13.771Z,98265.38
2019-04-05T01:32:42.216Z,98258.92
2019-04-05T01:35:10.733Z,98253.34
2019-04-05T01:37:38.972Z,98223.70
2019-04-05T01:40:07.930Z,98239.18
2019-04-05T01:42:37.303Z,98231.98
2019-04-05T01:45:08.807Z,98229.48
2019-04-05T01:47:37.636Z,98224.32
2019-04-05T01:50:08.527Z,98222.64
2019-04-05T01:52:37.024Z,98220.09
2019-04-05T01:55:08.270Z,98218.00
2019-04-05T01:57:36.519Z,98209.87
2019-04-05T02:00:07.885Z,98209.18
2019-04-05T02:02:36.117Z,98205.63
2019-04-05T02:05:07.551Z,98205.98
2019-04-05T02:07:36.191Z,98205.48
2019-04-05T02:10:10.029Z,98211.34
2019-04-05T02:12:38.840Z,98198.51
2019-04-05T02:15:08.965Z,98204.83
2019-04-05T02:17:37.497Z,98203.06
2019-04-05T02:20:07.333Z,98220.28
2019-04-05T02:22:35.572Z,98227.47
2019-04-05T02:25:05.870Z,98229.03
2019-04-05T02:27:34.113Z,98235.41
2019-04-05T02:30:02.405Z,98232.86
2019-04-05T02:32:30.639Z,98240.05
2019-04-05T02:34:59.106Z,98237.81
2019-04-05T02:37:27.332Z,98234.20
2019-04-05T02:39:55.560Z,98240.70
2019-04-05T02:42:23.994Z,98237.88
2019-04-05T02:44:52.577Z,98234.20
2019-04-05T02:47:21.285Z,98227.81
2019-04-05T02:49:50.215Z,98218.06
2019-04-05T02:52:19.898Z,98216.03
2019-04-05T02:54:48.497Z,98210.87
2019-04-05T02:57:16.815Z,98204.48
2019-04-05T02:59:45.336Z,98209.13
2019-04-05T03:02:13.566Z,98208.57
2019-04-05T03:04:41.801Z,98222.42
2019-04-05T03:07:10.105Z,98228.28
2019-04-05T03:09:38.507Z,98233.73
2019-04-05T03:12:07.113Z,98248.58
2019-04-05T03:14:35.507Z,98244.75
2019-04-05T03:17:03.828Z,98246.56
2019-04-05T03:19:33.916Z,98251.39
2019-04-05T03:22:04.444Z,98256.62
2019-04-05T03:24:34.591Z,98265.71
2019-04-05T03:27:05.425Z,98267.58
2019-04-05T03:29:33.731Z,98266.46
2019-04-05T03:32:02.413Z,98264.03
2019-04-05T03:34:30.987Z,98266.18
2019-04-05T03:36:59.527Z,98259.45
2019-04-05T03:39:28.243Z,98253.47
2019-04-05T03:41:56.536Z,98232.57
2019-04-05T03:44:25.075Z,98232.51
2019-04-05T03:46:57.228Z,98224.38
2019-04-05T03:49:24.066Z,98230.77
2019-04-05T03:51:52.285Z,98243.07
2019-04-05T03:54:20.821Z,98239.64
2019-04-05T03:56:49.118Z,98248.12
2019-04-05T03:59:17.575Z,98261.66
2019-04-05T04:01:45.888Z,98269.42
2019-04-05T04:04:14.124Z,98276.27
2019-04-05T04:06:42.629Z,98283.12
2019-04-05T04:09:10.881Z,98287.48
2019-04-05T04:11:39.109Z,98291.59
2019-04-05T04:14:07.514Z,98295.61
2019-04-05T04:16:36.116Z,98307.20
2019-04-05T04:19:04.425Z,98310.56
2019-04-05T04:21:41.668Z,98320.97
2019-04-05T04:24:10.273Z,98308.60
2019-04-05T04:26:38.681Z,98295.89
2019-04-05T04:29:06.929Z,98296.08
2019-04-05T04:31:35.290Z,98306.02
2019-04-05T04:34:03.518Z,98306.52
2019-04-05T04:36:31.757Z,98297.23
2019-04-05T04:38:59.988Z,98296.07
2019-04-05T04:41:31.736Z,98282.89
2019-04-05T04:43:58.396Z,98279.12
2019-04-05T04:46:26.636Z,98277.03
2019-04-05T04:48:55.087Z,98278.31
2019-04-05T04:51:23.705Z,98271.92
2019-04-05T04:53:52.194Z,98285.10
2019-04-05T04:56:20.606Z,98275.69
2019-04-05T04:58:48.832Z,98282.02
2019-04-05T05:01:17.069Z,98284.92
2019-04-05T05:03:45.298Z,98282.36
2019-04-05T05:06:13.709Z,98275.05
2019-04-05T05:08:41.937Z,98267.78
2019-04-05T05:11:14.858Z,98268.45
2019-04-05T05:13:40.794Z,98270.25
2019-04-05T05:16:09.330Z,98268.51
2019-04-05T05:18:37.625Z,98274.89
2019-04-05T05:21:06.433Z,98276.64
2019-04-05T05:23:34.832Z,98278.75
2019-04-05T05:26:03.365Z,98268.13
2019-04-05T05:28:32.870Z,98271.21
2019-04-05T05:31:01.107Z,98271.73
2019-04-05T05:33:29.403Z,98278.13
2019-04-05T05:35:57.861Z,98287.07
2019-04-05T05:38:26.097Z,98272.95
2019-04-05T05:40:54.355Z,98281.09
2019-04-05T05:43:23.984Z,98280.68
2019-04-05T05:45:52.556Z,98284.98
2019-04-05T05:48:20.795Z,98281.95
2019-04-05T05:50:49.029Z,98282.89
2019-04-05T05:53:17.267Z,98276.44
2019-04-05T05:55:45.497Z,98281.27
2019-04-05T05:58:13.737Z,98287.38
2019-04-05T06:00:41.966Z,98296.93
2019-04-05T06:03:11.233Z,98297.92
2019-04-05T06:05:40.148Z,98301.06
2019-04-05T06:08:08.599Z,98301.63
2019-04-05T06:10:36.873Z,98305.58
2019-04-05T06:13:07.135Z,98303.95
2019-04-05T06:15:37.423Z,98297.27
2019-04-05T06:18:05.371Z,98299.60
2019-04-05T06:20:33.948Z,98300.09
2019-04-05T06:23:02.185Z,98308.81
2019-04-05T06:25:30.529Z,98312.42
2019-04-05T06:27:59.913Z,98312.53
2019-04-05T06:30:28.881Z,98311.72
2019-04-05T06:32:57.325Z,98312.62
2019-04-05T06:35:25.555Z,98314.02
2019-04-05T06:37:53.805Z,98319.59
2019-04-05T06:40:22.033Z,98320.47
2019-04-05T06:42:50.271Z,98325.64
2019-04-05T06:45:18.580Z,98315.87
2019-04-05T06:47:46.826Z,98315.47
2019-04-05T06:50:15.896Z,98316.86
2019-04-05T06:52:44.136Z,98318.61
2019-04-05T06:55:12.695Z,98315.64
2019-04-05T06:57:40.940Z,98319.02
2019-04-05T07:00:09.571Z,98321.63
2019-04-05T07:02:38.140Z,98321.63
2019-04-05T07:05:07.545Z,98316.92
2019-04-05T07:07:35.785Z,98318.66
2019-04-05T07:10:05.453Z,98321.63
2019-04-05T07:12:33.706Z,98322.91
2019-04-05T07:15:02.149Z,98319.16
2019-04-05T07:17:30.384Z,98323.05
2019-04-05T07:19:58.614Z,98321.83
2019-04-05T07:22:38.666Z,98323.92
2019-04-05T07:24:56.812Z,98316.77
2019-04-05T07:27:25.053Z,98333.86
2019-04-05T07:29:53.283Z,98331.36
2019-04-05T07:32:21.523Z,98329.20
2019-04-05T07:34:49.755Z,98337.34
2019-04-05T07:37:18.229Z,98331.83
2019-04-05T07:39:46.462Z,98332.30
2019-04-05T07:42:14.710Z,98337.11
2019-04-05T07:44:42.946Z,98334.98
2019-04-05T07:47:11.262Z,98330.34
2019-04-05T07:49:39.502Z,98333.41
2019-04-05T07:52:07.744Z,98334.41
2019-04-05T07:54:35.980Z,98333.64
2019-04-05T07:57:04.399Z,98327.77
2019-04-05T07:59:32.624Z,98330.81
2019-04-05T08:02:00.851Z,98325.69
2019-04-05T08:04:29.093Z,98322.23
2019-04-05T08:06:59.700Z,98329.52
2019-04-05T08:09:28.209Z,98327.82
2019-04-05T08:11:56.817Z,98329.13
2019-04-05T08:14:25.235Z,98331.80
2019-04-05T08:16:53.731Z,98334.88
2019-04-05T08:19:21.974Z,98335.86
2019-04-05T08:21:50.502Z,98331.55
2019-04-05T08:24:18.971Z,98326.44
2019-04-05T08:26:47.200Z,98332.02
2019-04-05T08:29:15.444Z,98329.52
2019-04-05T08:31:43.908Z,98329.92
2019-04-05T08:34:12.448Z,98330.50
2019-04-05T08:36:40.683Z,98326.84
2019-04-05T08:39:09.088Z,98321.83
2019-04-05T08:41:37.326Z,98331.78
2019-04-05T08:44:05.899Z,98337.83
2019-04-05T08:46:34.427Z,98331.37
2019-04-05T08:49:10.637Z,98333.23
2019-04-05T08:51:32.592Z,98336.67
2019-04-05T08:54:01.060Z,98331.77
2019-04-05T08:56:29.511Z,98338.69
2019-04-05T08:58:57.747Z,98341.25
2019-04-05T09:01:25.982Z,98336.32
2019-04-05T09:03:54.217Z,98334.33
2019-04-05T09:06:22.443Z,98337.77
2019-04-05T09:08:50.944Z,98338.63
2019-04-05T09:11:19.228Z,98343.81
2019-04-05T09:13:47.520Z,98342.61
2019-04-05T09:16:16.082Z,98342.71
2019-04-05T09:18:44.561Z,98348.45
2019-04-05T09:21:12.791Z,98345.13
2019-04-05T09:23:41.029Z,98348.20
2019-04-05T09:26:09.597Z,98345.26
2019-04-05T09:28:37.830Z,98350.95
2019-04-05T09:31:06.116Z,98350.59
2019-04-05T09:33:34.631Z,98352.75
2019-04-05T09:36:02.869Z,98349.72
2019-04-05T09:38:31.103Z,98346.03
2019-04-05T09:40:59.662Z,98350.85
2019-04-05T09:43:28.115Z,98345.39
2019-04-05T09:45:56.370Z,98356.52
2019-04-05T09:48:24.580Z,98341.59
2019-04-05T09:50:52.888Z,98345.09
2019-04-05T09:53:21.115Z,98344.63
2019-04-05T09:55:49.637Z,98342.58
2019-04-05T09:58:18.089Z,98338.02
2019-04-05T10:00:46.384Z,98343.72
2019-04-05T10:03:14.556Z,98341.41
2019-04-05T10:05:42.804Z,98347.15
2019-04-05T10:08:11.332Z,98348.95
2019-04-05T10:10:39.820Z,98349.55
2019-04-05T10:13:09.799Z,98331.02
2019-04-05T10:15:38.010Z,98337.09
2019-04-05T10:18:06.256Z,98334.22
2019-04-05T10:20:34.487Z,98336.12
2019-04-05T10:23:02.760Z,98341.48
2019-04-05T10:25:30.992Z,98339.48
2019-04-05T10:27:59.257Z,98342.96
2019-04-05T10:30:27.773Z,98347.37
2019-04-05T10:32:56.256Z,98347.84
2019-04-05T10:35:24.496Z,98340.59
2019-04-05T10:37:52.731Z,98345.17
2019-04-05T10:40:21.031Z,98340.55
2019-04-05T10:42:49.567Z,98336.80
2019-04-05T10:45:17.976Z,98345.41
2019-04-05T10:47:46.560Z,98340.78
2019-04-05T10:50:15.539Z,98337.05
2019-04-05T10:52:44.115Z,98340.07
2019-04-05T10:55:12.981Z,98340.20
2019-04-05T10:57:41.226Z,98332.55
2019-04-05T11:00:12.769Z,98328.34
2019-04-05T11:02:41.008Z,98325.27
2019-04-05T11:05:09.801Z,98315.05
2019-04-05T11:07:38.263Z,98311.06
2019-04-05T11:10:09.270Z,98314.86
2019-04-05T11:12:37.509Z,98318.25
2019-04-05T11:15:07.278Z,98329.89
2019-04-05T11:17:35.903Z,98303.21
2019-04-05T11:20:20.672Z,98323.25
2019-04-05T11:22:37.815Z,98316.94
2019-04-05T11:25:07.489Z,98315.46
2019-04-05T11:27:36.053Z,98316.15
2019-04-05T11:30:07.088Z,98317.52
2019-04-05T11:32:35.483Z,98317.15
2019-04-05T11:35:05.316Z,98315.73
2019-04-05T11:37:33.633Z,98312.93
2019-04-05T11:40:01.937Z,98314.72
2019-04-05T11:42:33.038Z,98312.16
2019-04-05T11:45:01.085Z,98309.17
2019-04-05T11:47:29.315Z,98308.43
2019-04-05T11:49:58.814Z,98307.19
2019-04-05T11:52:27.053Z,98304.20
2019-04-05T11:54:55.928Z,98305.36
2019-04-05T11:57:24.409Z,98308.30
2019-04-05T11:59:52.643Z,98307.93
2019-04-05T12:02:28.846Z,98301.87
2019-04-05T12:04:58.975Z,98296.73
2019-04-05T12:07:27.504Z,98293.44
2019-04-05T12:09:56.144Z,98293.56
2019-04-05T12:12:25.720Z,98289.30
2019-04-05T12:14:54.053Z,98288.02
2019-04-05T12:17:22.527Z,98290.38
2019-04-05T12:19:50.758Z,98285.64
2019-04-05T12:22:20.074Z,98286.02
2019-04-05T12:24:48.411Z,98289.34
2019-04-05T12:27:16.871Z,98286.36
2019-04-05T12:29:45.099Z,98275.08
2019-04-05T12:32:17.902Z,98276.08
2019-04-05T12:34:43.670Z,98270.44
2019-04-05T12:37:12.131Z,98264.31
2019-04-05T12:39:40.527Z,98266.78
2019-04-05T12:42:11.931Z,98268.94
2019-04-05T12:44:38.955Z,98269.81
2019-04-05T12:47:07.193Z,98276.13
2019-04-05T12:49:35.422Z,98274.75
2019-04-05T12:52:03.667Z,98273.09
2019-04-05T12:54:31.892Z,98266.62
2019-04-05T12:57:00.119Z,98259.33
2019-04-05T12:59:28.473Z,98262.23
2019-04-05T13:01:59.515Z,98262.31
2019-04-05T13:04:26.987Z,98263.69
2019-04-05T13:06:55.549Z,98266.62
2019-04-05T13:09:24.684Z,98271.31
2019-04-05T13:11:56.482Z,98255.44
2019-04-05T13:14:26.139Z,98259.62
2019-04-05T13:16:53.220Z,98259.84
2019-04-05T13:19:21.462Z,98251.01
2019-04-05T13:21:49.691Z,98253.95
2019-04-05T13:24:17.933Z,98253.99
2019-04-05T13:26:46.159Z,98254.41
2019-04-05T13:29:14.737Z,98261.78
2019-04-05T13:31:43.219Z,98255.02
2019-04-05T13:34:11.700Z,98268.41
2019-04-05T13:36:40.102Z,98260.77
2019-04-05T13:39:09.119Z,98257.00
2019-04-05T13:41:37.349Z,98262.93
2019-04-05T13:44:06.089Z,98253.06
2019-04-05T13:46:38.291Z,98259.08
2019-04-05T13:49:04.585Z,98251.41
2019-04-05T13:51:32.885Z,98248.30
2019-04-05T13:54:01.125Z,98241.88
2019-04-05T13:56:29.587Z,98237.23
2019-04-05T13:58:57.829Z,98236.51
2019-04-05T14:01:26.067Z,98232.81
2019-04-05T14:03:54.612Z,98230.05
2019-04-05T14:06:23.199Z,98236.69
2019-04-05T14:08:51.568Z,98221.89
2019-04-05T14:11:19.803Z,98221.65
2019-04-05T14:13:48.045Z,98218.77
2019-04-05T14:16:16.280Z,98220.19
2019-04-05T14:18:49.392Z,98225.89
2019-04-05T14:21:14.930Z,98219.91
2019-04-05T14:23:43.166Z,98216.05
2019-04-05T14:26:11.409Z,98218.65
2019-04-05T14:28:39.950Z,98219.03
2019-04-05T14:31:08.193Z,98217.30
2019-04-05T14:33:36.909Z,98218.90
2019-04-05T14:36:05.159Z,98219.73
2019-04-05T14:38:33.390Z,98217.89
2019-04-05T14:41:01.634Z,98220.30
2019-04-05T14:43:29.865Z,98217.89
2019-04-05T14:45:58.104Z,98216.02
2019-04-05T14:48:28.054Z,98218.83
2019-04-05T14:50:57.878Z,98210.28
2019-04-05T14:53:26.249Z,98209.62
2019-04-05T14:55:54.561Z,98207.36
2019-04-05T14:58:22.794Z,98216.59
2019-04-05T15:00:51.033Z,98209.36
2019-04-05T15:03:19.266Z,98211.94
2019-04-05T15:05:47.504Z,98214.47
2019-04-05T15:08:15.985Z,98214.05
2019-04-05T15:10:44.225Z,98217.04
2019-04-05T15:13:12.455Z,98212.20
2019-04-05T15:15:40.699Z,98209.56
2019-04-05T15:18:09.158Z,98212.05
2019-04-05T15:20:37.615Z,98212.09
2019-04-05T15:23:06.139Z,98221.95
2019-04-05T15:25:34.448Z,98218.59
2019-04-05T15:28:02.679Z,98222.94
2019-04-05T15:30:30.927Z,98219.16
2019-04-05T15:33:01.100Z,98216.59
2019-04-05T15:35:29.350Z,98224.27
2019-04-05T15:38:01.426Z,98220.41
2019-04-05T15:40:28.731Z,98220.03
2019-04-05T15:42:57.865Z,98219.13
2019-04-05T15:45:26.100Z,98219.09
2019-04-05T15:47:54.651Z,98217.87
2019-04-05T15:50:22.954Z,98214.85
2019-04-05T15:52:51.207Z,98207.14
2019-04-05T15:55:19.510Z,98209.59
2019-04-05T15:57:47.755Z,98206.95
2019-04-05T16:00:18.060Z,98206.88
2019-04-05T16:02:46.296Z,98200.75
2019-04-05T16:05:14.964Z,98202.91
2019-04-05T16:07:43.425Z,98207.22
2019-04-05T16:10:12.116Z,98210.13
2019-04-05T16:12:40.351Z,98214.52
2019-04-05T16:15:09.448Z,98215.00
2019-04-05T16:17:37.685Z,98212.92
2019-04-05T16:20:12.618Z,98210.39
2019-04-05T16:22:41.142Z,98216.36
2019-04-05T16:25:09.499Z,98218.48
2019-04-05T16:27:37.736Z,98214.55
2019-04-05T16:30:07.231Z,98219.20
2019-04-05T16:32:35.695Z,98221.73
2019-04-05T16:35:06.358Z,98221.73
2019-04-05T16:37:34.815Z,98223.51
2019-04-05T16:40:04.124Z,98232.13
2019-04-05T16:42:32.624Z,98230.46
2019-04-05T16:45:01.080Z,98232.62
2019-04-05T16:47:29.325Z,98226.19
2019-04-05T16:49:57.548Z,98224.87
2019-04-05T16:52:25.790Z,98231.25
2019-04-05T16:54:54.015Z,98239.34
2019-04-05T16:57:22.258Z,98233.22
2019-04-05T16:59:50.484Z,98232.27
2019-04-05T17:02:18.727Z,98233.93
2019-04-05T17:04:46.971Z,98238.53
2019-04-05T17:07:15.200Z,98236.22
2019-04-05T17:09:43.472Z,98237.68
2019-04-05T17:12:11.714Z,98242.73
2019-04-05T17:14:39.976Z,98243.85
2019-04-05T17:17:08.212Z,98242.52
2019-04-05T17:19:36.453Z,98242.45
2019-04-05T17:22:04.958Z,98245.02
2019-04-05T17:24:33.199Z,98245.38
2019-04-05T17:27:01.431Z,98242.35
2019-04-05T17:29:29.669Z,98244.84
2019-04-05T17:31:58.123Z,98240.53
2019-04-05T17:34:26.590Z,98242.64
2019-04-05T17:36:54.848Z,98243.97
2019-04-05T17:39:23.147Z,98246.87
2019-04-05T17:41:51.395Z,98243.47
2019-04-05T17:44:19.639Z,98246.87
2019-04-05T17:46:47.876Z,98245.63
2019-04-05T17:49:16.121Z,98247.36
2019-04-05T17:51:44.347Z,98249.06
2019-04-05T17:54:12.867Z,98242.60
2019-04-05T17:56:41.172Z,98244.30
2019-04-05T17:59:10.176Z,98248.02
2019-04-05T18:01:38.897Z,98243.30
2019-04-05T18:04:07.522Z,98254.39
2019-04-05T18:06:35.751Z,98249.17
2019-04-05T18:09:05.444Z,98251.28
2019-04-05T18:11:33.845Z,98250.50
2019-04-05T18:14:02.100Z,98262.92
2019-04-05T18:16:30.399Z,98257.28
2019-04-05T18:18:58.655Z,98261.50
2019-04-05T18:21:26.892Z,98261.50
2019-04-05T18:23:55.371Z,98260.59
2019-04-05T18:26:23.615Z,98263.53
2019-04-05T18:28:51.850Z,98265.59
2019-04-05T18:31:20.090Z,98262.16
2019-04-05T18:33:48.322Z,98260.82
2019-04-05T18:36:16.557Z,98267.70
2019-04-05T18:38:44.782Z,98266.37
2019-04-05T18:41:13.022Z,98268.52
2019-04-05T18:43:41.256Z,98276.27
2019-04-05T18:46:09.492Z,98274.12
2019-04-05T18:48:37.729Z,98269.39
2019-04-05T18:51:05.964Z,98272.41
2019-04-05T18:53:37.795Z,98270.27
2019-04-05T18:56:04.715Z,98279.25
2019-04-05T18:58:32.976Z,98276.27
2019-04-05T19:01:01.181Z,98286.55
2019-04-05T19:03:29.463Z,98284.84
2019-04-05T19:05:57.704Z,98281.00
2019-04-05T19:08:38.722Z,98285.25
2019-04-05T19:10:55.993Z,98284.80
2019-04-05T19:13:24.220Z,98283.97
2019-04-05T19:15:52.493Z,98287.36
2019-04-05T19:18:21.097Z,98284.34
2019-04-05T19:20:49.738Z,98286.48
2019-04-05T19:23:17.969Z,98292.91
2019-04-05T19:25:46.765Z,98292.03
2019-04-05T19:28:15.111Z,98290.38
2019-04-05T19:50:43.456Z,98273.38
2019-04-05T19:53:11.704Z,98273.75
2019-04-05T19:55:39.933Z,98270.31
2019-04-05T19:58:08.178Z,98266.88
2019-04-05T20:00:36.716Z,98269.86
2019-04-05T20:03:05.631Z,98267.66
2019-04-05T20:05:33.839Z,98264.72
2019-04-05T20:08:02.368Z,98271.87
2019-04-05T20:10:30.851Z,98274.89
2019-04-05T20:12:59.345Z,98276.17
2019-04-05T20:15:27.555Z,98272.28
2019-04-05T20:17:55.797Z,98265.09
2019-04-05T20:20:24.024Z,98268.12
2019-04-05T20:22:52.261Z,98274.53
2019-04-05T20:25:20.495Z,98277.55
2019-04-05T20:27:48.727Z,98276.69
2019-04-05T20:30:16.961Z,98274.58
2019-04-05T20:32:45.201Z,98277.65
2019-04-05T20:35:13.505Z,98274.25
2019-04-05T20:37:41.746Z,98273.02
2019-04-05T20:40:10.495Z,98273.52
2019-04-05T20:42:38.736Z,98281.62
2019-04-05T20:45:06.971Z,98284.66
2019-04-05T20:47:35.220Z,98280.44
2019-04-05T20:50:04.315Z,98284.33
2019-04-05T20:52:32.558Z,98280.94
2019-04-05T20:55:01.069Z,98286.94
2019-04-05T20:57:29.563Z,98295.92
2019-04-05T20:59:57.791Z,98294.23
2019-04-05T21:02:26.021Z,98298.49
2019-04-05T21:04:54.259Z,98290.38
2019-04-05T21:07:22.726Z,98295.47
2019-04-05T21:09:51.083Z,98291.53
2019-04-05T21:12:19.263Z,98285.11
2019-04-05T21:14:47.731Z,98292.31
2019-04-05T21:17:15.961Z,98288.83
2019-04-05T21:19:44.430Z,98285.89
2019-04-05T21:22:12.662Z,98290.53
2019-04-05T21:24:41.123Z,98288.74
2019-04-05T21:27:09.351Z,98289.70
2019-04-05T21:29:37.584Z,98290.66
2019-04-05T21:32:05.813Z,98296.70
2019-04-05T21:34:34.052Z,98294.92
2019-04-05T21:37:02.284Z,98295.34
2019-04-05T21:39:30.520Z,98294.75
2019-04-05T21:41:58.752Z,98297.31
2019-04-05T21:44:26.991Z,98307.54
2019-04-05T21:46:55.225Z,98302.81
2019-04-05T21:49:23.475Z,98300.70
2019-04-05T21:51:51.699Z,98301.13
2019-04-05T21:54:20.231Z,98305.42
2019-04-05T21:56:48.691Z,98298.09
2019-04-05T21:59:16.927Z,98291.13
2019-04-05T22:01:45.384Z,98302.45
2019-04-05T22:04:13.853Z,98302.08
2019-04-05T22:06:42.112Z,98311.89
2019-04-05T22:09:10.462Z,98305.06
2019-04-05T22:11:39.274Z,98306.34
2019-04-05T22:14:07.505Z,98305.93
2019-04-05T22:16:35.736Z,98300.38
2019-04-05T22:19:03.972Z,98305.97
2019-04-05T22:21:32.212Z,98309.00
2019-04-05T22:24:00.671Z,98315.00
2019-04-05T22:26:29.138Z,98317.11
2019-04-05T22:28:57.363Z,98314.09
2019-04-05T22:31:25.600Z,98315.83
2019-04-05T22:33:54.048Z,98307.67
2019-04-05T22:36:22.512Z,98306.39
2019-04-05T22:38:50.760Z,98308.55
2019-04-05T22:41:18.976Z,98313.62
2019-04-05T22:43:47.436Z,98309.83
2019-04-05T22:46:15.676Z,98306.47
2019-04-05T22:48:43.903Z,98307.44
2019-04-05T22:51:12.367Z,98309.95
2019-04-05T22:53:40.601Z,98301.84
2019-04-05T22:56:08.842Z,98304.05
2019-04-05T22:58:37.073Z,98300.19
2019-04-05T23:01:05.379Z,98295.94
2019-04-05T23:03:33.608Z,98300.70
2019-04-05T23:06:01.844Z,98297.27
2019-04-05T23:08:30.072Z,98293.37
2019-04-05T23:10:58.546Z,98292.08
2019-04-05T23:13:26.780Z,98293.27
2019-04-05T23:15:55.247Z,98288.55
2019-04-05T23:18:23.703Z,98278.69
2019-04-05T23:20:51.940Z,98285.11
2019-04-05T23:23:20.168Z,98284.66
2019-04-05T23:25:48.409Z,98282.91
2019-04-05T23:28:16.873Z,98280.39
2019-04-05T23:30:45.223Z,98287.22
2019-04-05T23:33:13.421Z,98281.62
2019-04-05T23:35:41.655Z,98281.67
2019-04-05T23:38:09.882Z,98285.94
2019-04-05T23:40:38.344Z,98285.48
2019-04-05T23:43:06.576Z,98285.48
2019-04-05T23:45:34.884Z,98285.06
2019-04-05T23:48:03.340Z,98282.87
2019-04-05T23:50:31.575Z,98282.45
2019-04-05T23:52:59.803Z,98286.77
2019-04-05T23:55:33.124Z,98285.44
2019-04-05T23:57:59.632Z,98279.84
